Time;durP1;ratioP1;P1;durP2;ratioP2;P2;SDS_P1;SDS_P2;PMS_P1;PMS_P2;Temp;Humidity;BMP_temperature;BMP_pressure;BME280_temperature;BME280_humidity;BME280_pressure;Samples;Min_cycle;Max_cycle;Signal;HPM_P1;HPM_P2
2023/08/22 00:02:19;;;;;;;3.87;3.47;;;;;;;25.47;61.53;97791.47;5051160;28;20262;-27
2023/08/22 00:04:46;;;;;;;3.70;3.30;;;;;;;25.47;61.40;97788.91;5050931;28;20220;-28
2023/08/22 00:07:13;;;;;;;3.20;2.90;;;;;;;25.47;61.38;97783.75;5050862;28;20216;-28
2023/08/22 00:09:40;;;;;;;3.93;3.53;;;;;;;25.46;61.23;97779.44;5051373;28;20585;-28
2023/08/22 00:12:06;;;;;;;3.53;3.23;;;;;;;25.49;61.58;97774.34;5050079;28;20733;-27
2023/08/22 00:14:33;;;;;;;3.60;3.30;;;;;;;25.49;61.61;97768.34;5050988;28;20737;-28
2023/08/22 00:17:00;;;;;;;3.33;3.03;;;;;;;25.49;61.40;97776.06;5044953;28;20227;-27
2023/08/22 00:19:26;;;;;;;3.07;2.80;;;;;;;25.49;61.43;97778.63;5051302;28;20225;-27
2023/08/22 00:21:56;;;;;;;3.00;2.80;;;;;;;25.49;61.20;97774.34;5049341;28;20232;-28
2023/08/22 00:24:23;;;;;;;3.37;3.07;;;;;;;25.50;61.56;97773.50;5043461;28;20604;-27
2023/08/22 00:26:50;;;;;;;3.43;3.13;;;;;;;25.50;61.36;97767.50;5050471;28;20229;-26
2023/08/22 00:29:16;;;;;;;3.33;3.03;;;;;;;25.50;61.41;97764.91;5050247;28;20208;-26
2023/08/22 00:31:43;;;;;;;3.53;3.23;;;;;;;25.50;61.54;97758.06;5047280;28;20197;-27
2023/08/22 00:34:09;;;;;;;3.77;3.10;;;;;;;25.50;61.48;97760.66;5044793;28;20200;-28
2023/08/22 00:36:36;;;;;;;3.60;3.03;;;;;;;25.50;61.63;97765.78;5050802;28;20621;-27
2023/08/22 00:39:03;;;;;;;3.40;3.10;;;;;;;25.51;61.46;97764.94;5047802;28;20197;-27
2023/08/22 00:41:29;;;;;;;3.00;2.70;;;;;;;25.51;61.42;97764.94;5045989;28;20207;-28
2023/08/22 00:43:56;;;;;;;3.70;3.40;;;;;;;25.51;61.68;97764.06;5051023;28;20672;-28
2023/08/22 00:46:24;;;;;;;3.77;3.23;;;;;;;25.50;61.57;97760.66;5050916;28;20221;-28
2023/08/22 00:48:51;;;;;;;3.57;3.27;;;;;;;25.50;61.27;97762.34;5054555;28;20204;-28
2023/08/22 00:51:17;;;;;;;3.40;3.10;;;;;;;25.45;61.42;97746.81;5057222;28;20321;-28
2023/08/22 00:53:44;;;;;;;3.67;3.37;;;;;;;25.43;61.38;97745.06;5062507;28;20205;-27
2023/08/22 00:56:10;;;;;;;3.40;3.10;;;;;;;25.49;61.62;97752.91;5039245;28;20263;-27
2023/08/22 00:58:37;;;;;;;2.80;2.60;;;;;;;25.43;61.33;97745.91;5053462;28;20235;-28
2023/08/22 01:01:04;;;;;;;3.07;2.87;;;;;;;25.48;61.31;97751.13;5056927;28;20205;-26
2023/08/22 01:03:31;;;;;;;2.90;2.60;;;;;;;25.48;61.25;97757.16;5054072;28;20201;-28
2023/08/22 01:06:36;;;;;;;3.40;2.87;;;;;;;25.48;61.76;97754.59;5052397;28;20220;-27
2023/08/22 01:09:18;;;;;;;3.17;2.87;;;;;;;25.48;61.38;97757.16;5016947;28;20279;-25
2023/08/22 01:11:47;;;;;;;3.47;3.17;;;;;;;25.46;61.71;97748.53;5066777;28;20223;-28
2023/08/22 01:14:17;;;;;;;3.40;2.90;;;;;;;25.45;61.88;97746.81;5054134;28;20193;-28
2023/08/22 01:16:43;;;;;;;3.57;3.13;;;;;;;25.45;61.71;97746.81;5054286;28;20290;-27
2023/08/22 01:19:11;;;;;;;2.90;2.60;;;;;;;25.45;61.95;97746.81;5044870;28;20197;-27
2023/08/22 01:21:49;;;;;;;3.13;2.60;;;;;;;25.45;61.85;97751.97;5045880;28;20254;-27
2023/08/22 01:24:16;;;;;;;3.40;3.10;;;;;;;25.44;62.03;97749.38;5053450;28;20201;-27
2023/08/22 01:26:44;;;;;;;3.00;2.60;;;;;;;25.38;61.95;97738.97;5052930;28;20220;-28
2023/08/22 01:29:12;;;;;;;3.00;2.70;;;;;;;25.43;61.90;97751.06;5045964;28;20201;-28
2023/08/22 01:31:58;;;;;;;3.07;2.87;;;;;;;25.44;61.73;97744.22;5048518;28;20620;-27
2023/08/22 01:34:29;;;;;;;2.77;2.57;;;;;;;25.43;62.17;97748.50;5052113;28;20255;-28
2023/08/22 01:36:56;;;;;;;3.10;2.80;;;;;;;25.36;62.02;97730.34;5035749;28;20650;-27
2023/08/22 01:39:22;;;;;;;3.17;2.93;;;;;;;25.39;61.98;97740.69;5035851;28;20632;-28
2023/08/22 01:41:49;;;;;;;2.87;2.67;;;;;;;25.42;61.97;97741.63;5052586;28;20284;-27
2023/08/22 01:44:16;;;;;;;2.53;2.33;;;;;;;25.42;62.18;97735.59;5038889;28;20215;-26
2023/08/22 01:46:42;;;;;;;3.37;3.07;;;;;;;25.42;61.82;97748.47;5053002;28;20229;-27
2023/08/22 01:49:09;;;;;;;3.20;2.90;;;;;;;25.42;61.90;97740.75;5048925;28;20193;-28
2023/08/22 01:51:35;;;;;;;3.37;3.07;;;;;;;25.42;62.00;97743.31;5053856;28;20273;-27
2023/08/22 01:54:02;;;;;;;2.67;2.47;;;;;;;25.42;62.28;97739.03;5049638;28;20318;-27
2023/08/22 01:56:28;;;;;;;2.97;2.70;;;;;;;25.41;62.14;97739.03;5046454;28;20244;-27
2023/08/22 01:58:55;;;;;;;3.17;2.87;;;;;;;25.41;62.15;97739.03;5050487;28;20197;-27
2023/08/22 02:01:23;;;;;;;2.83;2.63;;;;;;;25.42;62.10;97743.31;5053582;28;20196;-28
2023/08/22 02:03:50;;;;;;;3.30;2.97;;;;;;;25.41;62.64;97739.03;5053500;28;20209;-27
2023/08/22 02:06:17;;;;;;;2.60;2.40;;;;;;;25.41;62.38;97739.03;5053354;28;20321;-28
2023/08/22 02:08:43;;;;;;;2.70;2.50;;;;;;;25.41;62.09;97731.31;5047686;28;20255;-26
2023/08/22 02:11:10;;;;;;;2.87;2.67;;;;;;;25.41;62.40;97728.72;5052467;28;20847;-27
2023/08/22 02:13:36;;;;;;;2.87;2.60;;;;;;;25.41;62.59;97732.19;5050792;28;20197;-27
2023/08/22 02:16:03;;;;;;;2.80;2.60;;;;;;;25.40;62.38;97735.56;5052937;28;20361;-26
2023/08/22 02:18:30;;;;;;;2.80;2.40;;;;;;;25.40;62.18;97725.28;5048918;28;20197;-26
2023/08/22 02:20:56;;;;;;;2.60;2.40;;;;;;;25.37;62.44;97714.09;5052984;28;20201;-28
2023/08/22 02:23:23;;;;;;;2.60;2.40;;;;;;;25.41;62.31;97727.03;5065461;28;20943;-28
2023/08/22 02:25:50;;;;;;;2.80;2.60;;;;;;;25.38;62.67;97721.84;5047646;28;20598;-27
2023/08/22 02:28:16;;;;;;;2.93;2.63;;;;;;;25.40;62.66;97727.00;5052782;28;20651;-28
2023/08/22 02:30:43;;;;;;;3.30;2.90;;;;;;;25.39;62.39;97717.53;5052315;28;20211;-28
2023/08/22 02:33:09;;;;;;;3.60;2.97;;;;;;;25.40;62.69;97719.28;5051295;28;20349;-28
2023/08/22 02:35:36;;;;;;;3.93;2.77;;;;;;;25.39;62.54;97715.84;5050019;28;20267;-28
2023/08/22 02:38:03;;;;;;;2.77;2.57;;;;;;;25.38;62.37;97719.25;5051538;28;20259;-27
2023/08/22 02:40:30;;;;;;;2.60;2.40;;;;;;;25.38;62.38;97721.84;5052834;28;20197;-28
2023/08/22 02:42:56;;;;;;;2.90;2.60;;;;;;;25.39;62.84;97725.25;5052023;28;20732;-28
2023/08/22 02:45:23;;;;;;;2.80;2.50;;;;;;;25.38;62.50;97724.41;5051991;28;20627;-26
2023/08/22 02:47:49;;;;;;;2.57;2.37;;;;;;;25.39;62.43;97723.56;5067198;23;20325;-24
2023/08/22 02:50:16;;;;;;;3.27;2.83;;;;;;;25.31;62.83;97708.81;5051164;28;20212;-23
2023/08/22 02:52:43;;;;;;;2.80;2.60;;;;;;;25.38;62.57;97718.38;5051465;28;20205;-28
2023/08/22 02:55:09;;;;;;;3.00;2.70;;;;;;;25.38;63.00;97718.38;5051882;28;20201;-26
2023/08/22 02:57:36;;;;;;;3.10;2.80;;;;;;;25.38;62.51;97731.25;5048915;28;20346;-23
2023/08/22 03:00:04;;;;;;;2.77;2.47;;;;;;;25.37;62.67;97725.22;5052003;28;20423;-46
2023/08/22 03:02:31;;;;;;;3.20;2.90;;;;;;;25.38;62.58;97726.09;5050101;28;20256;-23
2023/08/22 03:04:58;;;;;;;2.40;2.20;;;;;;;25.37;62.60;97732.94;5051452;28;20211;-23
2023/08/22 03:07:25;;;;;;;2.83;2.37;;;;;;;25.38;63.14;97726.09;5051555;28;20256;-23
2023/08/22 03:09:51;;;;;;;3.03;2.80;;;;;;;25.36;62.73;97718.34;5050847;28;20208;-32
2023/08/22 03:12:18;;;;;;;3.03;2.70;;;;;;;25.36;63.16;97715.78;5050989;28;20205;-23
2023/08/22 03:14:44;;;;;;;2.83;2.60;;;;;;;25.36;62.79;97720.94;5051829;28;20236;-23
2023/08/22 03:17:12;;;;;;;2.80;2.60;;;;;;;25.36;62.99;97723.50;5052454;28;20719;-23
2023/08/22 03:19:38;;;;;;;2.70;2.50;;;;;;;25.37;63.16;97719.22;5048714;28;20613;-25
2023/08/22 03:22:05;;;;;;;3.17;2.80;;;;;;;25.38;63.02;97726.09;5051142;28;20213;-23
2023/08/22 03:24:31;;;;;;;3.40;2.53;;;;;;;25.37;63.28;97727.81;5044366;28;20201;-23
2023/08/22 03:26:58;;;;;;;2.60;2.40;;;;;;;25.38;62.79;97723.53;5046506;28;20278;-28
2023/08/22 03:29:25;;;;;;;2.90;2.63;;;;;;;25.37;63.23;97732.09;5047053;28;20405;-24
2023/08/22 03:31:51;;;;;;;2.63;2.43;;;;;;;25.36;63.23;97720.94;5051116;28;20255;-25
2023/08/22 03:34:18;;;;;;;2.60;2.40;;;;;;;25.37;62.86;97720.06;5052929;28;20631;-23
2023/08/22 03:36:45;;;;;;;2.97;2.67;;;;;;;25.37;62.88;97720.06;5052888;28;20220;-30
2023/08/22 03:39:11;;;;;;;3.10;2.90;;;;;;;25.37;62.96;97714.09;5055642;28;20254;-24
2023/08/22 03:41:38;;;;;;;2.60;2.40;;;;;;;25.38;62.97;97718.38;5051730;28;20234;-23
2023/08/22 03:44:05;;;;;;;2.87;2.50;;;;;;;25.36;63.03;97715.78;5052937;28;20209;-23
2023/08/22 03:46:31;;;;;;;2.60;2.40;;;;;;;25.36;63.33;97720.94;5057391;28;20221;-24
2023/08/22 03:49:04;;;;;;;3.13;2.87;;;;;;;25.36;63.15;97715.78;5052247;28;20208;-23
2023/08/22 03:51:31;;;;;;;2.73;2.53;;;;;;;25.36;63.24;97717.47;5057310;28;20197;-29
2023/08/22 03:53:58;;;;;;;3.00;2.70;;;;;;;25.37;63.24;97721.81;5051070;28;20247;-23
2023/08/22 03:56:24;;;;;;;2.60;2.40;;;;;;;25.37;63.27;97724.38;5051241;28;20224;-23
2023/08/22 03:58:51;;;;;;;2.73;2.53;;;;;;;25.37;63.20;97722.66;5051235;28;20200;-23
2023/08/22 04:01:17;;;;;;;2.50;2.27;;;;;;;24.46;63.25;97570.09;5047681;28;20209;-27
2023/08/22 04:03:44;;;;;;;2.20;2.10;;;;;;;25.38;63.46;97733.81;5048795;28;20200;-26
2023/08/22 04:06:10;;;;;;;2.57;2.37;;;;;;;25.37;63.18;97730.38;5054471;28;20702;-23
2023/08/22 04:08:37;;;;;;;2.67;2.30;;;;;;;25.37;63.32;97730.38;5058043;28;20258;-23
2023/08/22 04:11:04;;;;;;;2.57;2.37;;;;;;;25.31;63.21;97721.66;5050786;28;20607;-29
2023/08/22 04:13:30;;;;;;;2.60;2.40;;;;;;;25.37;63.30;97732.94;5051034;28;20225;-23
2023/08/22 04:16:00;;;;;;;2.50;2.30;;;;;;;25.39;62.95;97732.97;5050993;28;20197;-25
2023/08/22 04:18:26;;;;;;;2.60;2.40;;;;;;;25.39;63.26;97727.81;5049880;28;20208;-34
2023/08/22 04:20:53;;;;;;;2.53;2.33;;;;;;;25.39;63.17;97735.53;5051184;28;20212;-25
2023/08/22 04:23:20;;;;;;;2.53;2.33;;;;;;;25.38;63.12;97726.97;5050681;28;20725;-24
2023/08/22 04:25:46;;;;;;;2.67;2.47;;;;;;;25.39;63.44;97728.69;5048790;28;20225;-23
2023/08/22 04:28:13;;;;;;;3.07;2.77;;;;;;;25.40;63.44;97727.00;5046517;28;20213;-23
2023/08/22 04:30:42;;;;;;;2.47;2.27;;;;;;;25.40;63.36;97724.44;5046625;28;20197;-23
2023/08/22 04:33:09;;;;;;;2.30;2.10;;;;;;;25.40;62.95;97721.84;5051963;28;20713;-30
2023/08/22 04:35:37;;;;;;;2.60;2.40;;;;;;;25.40;62.95;97712.41;5043276;28;20201;-23
2023/08/22 04:38:04;;;;;;;3.03;2.40;;;;;;;25.41;63.24;97715.88;5050103;28;20212;-37
2023/08/22 04:40:31;;;;;;;2.50;2.30;;;;;;;25.40;63.36;97712.41;5051276;28;20197;-23
2023/08/22 04:42:57;;;;;;;2.50;2.30;;;;;;;25.41;63.32;97716.75;5049792;28;20236;-23
2023/08/22 04:45:24;;;;;;;2.73;2.53;;;;;;;25.42;63.17;97721.03;5056027;28;20192;-27
2023/08/22 04:47:50;;;;;;;2.93;2.30;;;;;;;25.41;63.24;97716.75;5050454;28;20291;-24
2023/08/22 04:50:17;;;;;;;2.37;2.17;;;;;;;25.42;63.11;97721.03;5050256;28;20287;-23
2023/08/22 04:52:43;;;;;;;2.70;2.50;;;;;;;25.42;63.32;97713.31;5050386;28;20259;-26
2023/08/22 04:55:10;;;;;;;2.60;2.40;;;;;;;25.42;62.85;97715.88;5050489;28;20197;-30
2023/08/22 04:57:36;;;;;;;2.77;2.40;;;;;;;25.43;63.29;97717.59;5050408;28;20382;-25
2023/08/22 05:00:04;;;;;;;2.60;2.40;;;;;;;25.43;62.99;97729.63;5050930;28;20197;-23
2023/08/22 05:02:30;;;;;;;2.80;2.60;;;;;;;25.44;62.82;97727.09;5050593;28;20276;-23
2023/08/22 05:04:57;;;;;;;2.53;2.33;;;;;;;25.44;63.38;97731.34;5050200;28;20215;-24
2023/08/22 05:07:23;;;;;;;2.50;2.30;;;;;;;25.44;62.86;97742.53;5049767;28;20263;-23
2023/08/22 05:09:50;;;;;;;2.63;2.43;;;;;;;25.44;62.78;97736.50;5049851;28;20237;-30
2023/08/22 05:12:16;;;;;;;2.80;2.60;;;;;;;25.44;63.20;97739.94;5049904;28;20209;-23
2023/08/22 05:14:43;;;;;;;3.17;2.87;;;;;;;25.37;63.41;97721.81;5050087;28;20233;-24
2023/08/22 05:17:10;;;;;;;3.33;2.70;;;;;;;25.43;63.16;97738.19;5049694;28;20209;-24
2023/08/22 05:19:36;;;;;;;2.83;2.50;;;;;;;25.43;62.98;97727.91;5050318;28;20727;-23
2023/08/22 05:22:03;;;;;;;3.03;2.70;;;;;;;25.44;63.01;97736.50;5050335;28;20675;-32
2023/08/22 05:24:30;;;;;;;5.90;3.40;;;;;;;25.43;63.78;97730.47;5032566;28;20229;-23
2023/08/22 05:26:56;;;;;;;4.57;3.20;;;;;;;25.44;63.36;97732.22;5049417;28;20290;-27
2023/08/22 05:29:23;;;;;;;3.57;3.07;;;;;;;25.44;63.61;97736.50;5039635;28;20625;-23
2023/08/22 05:31:49;;;;;;;4.17;3.17;;;;;;;25.45;63.89;97735.66;5045099;28;20208;-26
2023/08/22 05:34:16;;;;;;;4.83;3.17;;;;;;;25.45;64.24;97731.38;5053730;28;20212;-23
2023/08/22 05:36:43;;;;;;;4.27;3.47;;;;;;;25.45;64.29;97731.38;5053048;28;20220;-24
2023/08/22 05:39:10;;;;;;;6.13;3.23;;;;;;;25.45;64.01;97733.06;5058606;28;20204;-23
2023/08/22 05:41:37;;;;;;;5.37;3.10;;;;;;;25.44;64.25;97739.06;5053397;28;20197;-23
2023/08/22 05:44:04;;;;;;;4.83;3.10;;;;;;;25.44;64.33;97726.22;5049667;28;20221;-23
2023/08/22 05:46:30;;;;;;;4.57;4.17;;;;;;;25.44;63.85;97731.34;5052813;28;20282;-27
2023/08/22 05:48:57;;;;;;;3.70;3.30;;;;;;;25.44;63.78;97733.94;5051198;28;20205;-23
2023/08/22 05:51:24;;;;;;;8.50;3.93;;;;;;;25.43;64.36;97738.19;5054961;28;20251;-23
2023/08/22 05:53:50;;;;;;;3.90;3.50;;;;;;;25.43;64.18;97742.50;5054758;28;20201;-23
2023/08/22 05:56:17;;;;;;;6.37;3.70;;;;;;;25.38;64.16;97734.69;5053244;28;20617;-24
2023/08/22 05:58:43;;;;;;;4.33;3.93;;;;;;;25.43;64.26;97748.50;5052933;28;20292;-23
2023/08/22 06:01:10;;;;;;;4.30;3.73;;;;;;;25.44;64.34;97751.94;5036800;28;20235;-23
2023/08/22 06:03:38;;;;;;;5.10;3.90;;;;;;;25.43;64.17;97753.63;5053343;28;20288;-32
2023/08/22 06:06:04;;;;;;;5.63;4.00;;;;;;;25.44;64.24;97751.94;5052517;28;20227;-23
2023/08/22 06:08:31;;;;;;;4.20;3.90;;;;;;;25.37;64.15;97738.09;5052862;28;20666;-23
2023/08/22 06:10:57;;;;;;;4.13;3.70;;;;;;;25.45;63.99;97751.97;5049173;28;20248;-25
2023/08/22 06:13:24;;;;;;;4.40;3.90;;;;;;;25.45;64.20;97751.09;5052523;28;20626;-23
2023/08/22 06:15:50;;;;;;;4.40;3.80;;;;;;;25.45;64.20;97757.13;5035228;28;20284;-23
2023/08/22 06:18:17;;;;;;;4.47;4.10;;;;;;;25.46;64.01;97758.00;5051865;28;20307;-23
2023/08/22 06:20:44;;;;;;;4.30;3.90;;;;;;;25.46;64.09;97758.84;5053122;28;20230;-23
2023/08/22 06:23:10;;;;;;;5.10;3.73;;;;;;;25.46;63.98;97763.97;5053131;28;20212;-24
2023/08/22 06:25:37;;;;;;;5.20;4.40;;;;;;;25.46;64.16;97763.13;5052498;28;20220;-23
2023/08/22 06:28:04;;;;;;;4.87;4.10;;;;;;;25.46;64.14;97756.25;5052695;28;20282;-23
2023/08/22 06:30:31;;;;;;;4.97;4.20;;;;;;;25.47;64.15;97752.00;5049460;28;20340;-26
2023/08/22 06:32:58;;;;;;;5.80;4.07;;;;;;;25.47;64.17;97750.31;5051607;28;20201;-23
2023/08/22 06:35:25;;;;;;;5.47;4.30;;;;;;;25.47;64.21;97755.44;5051762;28;20283;-24
2023/08/22 06:37:52;;;;;;;5.43;4.43;;;;;;;25.48;64.45;97756.28;5051338;28;20600;-23
2023/08/22 06:40:18;;;;;;;4.33;3.87;;;;;;;25.49;64.25;97758.03;5051860;28;20204;-28
2023/08/22 06:42:45;;;;;;;4.67;4.27;;;;;;;25.48;64.32;97754.59;5051075;28;20229;-23
2023/08/22 06:45:11;;;;;;;5.70;4.33;;;;;;;25.48;64.69;97757.16;5051338;28;20259;-23
2023/08/22 06:47:38;;;;;;;4.87;4.37;;;;;;;25.49;65.01;97758.88;5050727;28;20252;-23
2023/08/22 06:50:06;;;;;;;4.93;4.07;;;;;;;25.49;64.67;97764.03;5050930;28;20686;-24
2023/08/22 06:52:32;;;;;;;5.33;3.97;;;;;;;25.50;64.46;97757.19;5047477;28;20635;-23
2023/08/22 06:55:00;;;;;;;4.70;4.23;;;;;;;25.48;64.72;97752.03;5051119;28;20205;-23
2023/08/22 06:57:27;;;;;;;4.10;3.70;;;;;;;25.49;64.48;97750.31;5041348;28;20666;-28
2023/08/22 06:59:53;;;;;;;4.77;4.30;;;;;;;25.49;64.38;97758.88;5041648;28;20268;-24
2023/08/22 07:02:20;;;;;;;4.63;4.23;;;;;;;25.49;64.59;97753.75;5050615;28;20201;-26
2023/08/22 07:04:47;;;;;;;5.23;4.23;;;;;;;25.49;64.74;97758.88;5050885;28;20208;-23
2023/08/22 07:07:14;;;;;;;7.70;4.67;;;;;;;25.49;64.88;97748.59;5051431;28;20229;-25
2023/08/22 07:09:41;;;;;;;6.73;4.43;;;;;;;25.49;64.86;97750.31;5049859;28;20200;-23
2023/08/22 07:12:08;;;;;;;7.00;4.33;;;;;;;25.48;64.51;97752.03;5051424;28;20201;-28
2023/08/22 07:14:36;;;;;;;4.97;4.33;;;;;;;25.49;64.80;97752.91;5051340;28;20228;-27
2023/08/22 07:17:03;;;;;;;4.73;4.33;;;;;;;25.48;64.87;97753.72;5051293;28;20217;-25
2023/08/22 07:19:29;;;;;;;4.70;4.27;;;;;;;25.48;64.71;97754.59;5051727;28;20205;-24
2023/08/22 07:22:07;;;;;;;5.10;4.57;;;;;;;25.48;65.18;97761.44;5053729;28;20687;-24
2023/08/22 07:24:34;;;;;;;4.80;4.40;;;;;;;25.48;64.97;97753.72;5051528;28;20648;-23
2023/08/22 07:27:00;;;;;;;5.10;4.60;;;;;;;25.48;65.19;97758.88;5050447;28;20278;-28
2023/08/22 07:29:27;;;;;;;5.63;4.70;;;;;;;25.47;64.81;97755.44;5051240;28;20219;-27
2023/08/22 07:31:58;;;;;;;5.97;4.70;;;;;;;25.47;64.85;97752.88;5052005;28;20208;-23
2023/08/22 07:34:24;;;;;;;5.63;4.60;;;;;;;25.48;65.19;97751.13;5051062;28;20731;-23
2023/08/22 07:36:52;;;;;;;5.20;4.13;;;;;;;25.48;65.18;97756.28;5051194;28;20213;-26
2023/08/22 07:39:20;;;;;;;4.97;4.47;;;;;;;25.48;64.92;97762.31;5051908;28;20243;-23
2023/08/22 07:41:47;;;;;;;5.23;4.33;;;;;;;25.48;65.49;97753.72;5050049;28;20554;-23
2023/08/22 07:44:13;;;;;;;5.33;4.33;;;;;;;25.48;65.46;97757.16;5052326;28;20660;-28
2023/08/22 07:46:40;;;;;;;4.73;4.30;;;;;;;25.48;65.30;97759.75;5052365;28;20264;-23
2023/08/22 07:49:07;;;;;;;4.83;4.30;;;;;;;25.48;65.33;97771.72;5044962;28;20642;-28
2023/08/22 07:51:36;;;;;;;5.13;4.27;;;;;;;25.47;65.46;97770.88;5048749;28;20259;-26
2023/08/22 07:54:03;;;;;;;4.97;4.47;;;;;;;25.48;65.37;97766.59;5050298;28;20240;-27
2023/08/22 07:56:30;;;;;;;4.73;4.33;;;;;;;25.47;65.20;97760.59;5049706;28;20224;-30
2023/08/22 07:58:56;;;;;;;5.27;4.77;;;;;;;25.47;65.37;97765.75;5049559;28;20201;-25
2023/08/22 08:01:23;;;;;;;4.83;4.43;;;;;;;25.47;65.25;97765.75;5049789;28;20259;-33
2023/08/22 08:03:50;;;;;;;4.80;4.40;;;;;;;24.51;64.81;97610.44;5041625;28;20220;-26
2023/08/22 08:06:16;;;;;;;4.70;4.30;;;;;;;25.42;64.98;97758.75;5041494;28;20693;-27
2023/08/22 08:08:45;;;;;;;4.50;4.10;;;;;;;25.46;64.97;97774.28;5049612;28;20209;-23
2023/08/22 08:11:11;;;;;;;4.83;4.43;;;;;;;25.47;65.09;97773.47;5048604;28;20266;-23
2023/08/22 08:13:38;;;;;;;4.90;4.50;;;;;;;25.47;64.90;97770.00;5049627;28;20204;-23
2023/08/22 08:16:06;;;;;;;5.13;4.63;;;;;;;25.46;64.72;97766.56;5049954;28;20288;-24
2023/08/22 08:18:33;;;;;;;4.33;4.00;;;;;;;25.46;65.04;97771.72;5049770;28;20224;-26
2023/08/22 08:21:00;;;;;;;4.60;4.20;;;;;;;25.46;65.01;97771.72;5049662;28;20208;-26
2023/08/22 08:23:27;;;;;;;4.50;4.10;;;;;;;25.47;64.96;97770.88;5049407;28;20208;-28
2023/08/22 08:25:53;;;;;;;5.40;4.50;;;;;;;25.47;65.16;97775.16;5049863;28;20228;-25
2023/08/22 08:28:20;;;;;;;4.50;4.20;;;;;;;25.47;64.73;97770.00;5029021;28;20759;-23
2023/08/22 08:30:46;;;;;;;4.97;4.57;;;;;;;25.47;65.14;97770.00;5048996;28;20635;-23
2023/08/22 08:33:13;;;;;;;5.37;4.70;;;;;;;25.46;65.10;97771.72;5049857;28;20211;-24
2023/08/22 08:35:40;;;;;;;4.73;4.33;;;;;;;25.47;64.66;97762.28;5048854;28;20205;-27
2023/08/22 08:38:06;;;;;;;4.90;4.50;;;;;;;25.47;64.72;97768.31;5050805;28;20365;-30
2023/08/22 08:40:36;;;;;;;4.93;4.53;;;;;;;25.46;64.62;97761.41;5049571;28;20550;-23
2023/08/22 08:43:03;;;;;;;5.83;4.50;;;;;;;25.47;65.12;97762.28;5050522;28;20551;-23
2023/08/22 08:45:30;;;;;;;4.50;4.10;;;;;;;25.47;64.94;97770.88;5049514;28;20217;-32
2023/08/22 08:47:58;;;;;;;4.97;4.57;;;;;;;25.46;64.84;97756.25;5024239;23;20221;-29
2023/08/22 08:50:25;;;;;;;4.57;4.27;;;;;;;25.47;65.38;97762.28;5039495;28;20197;-28
2023/08/22 08:52:52;;;;;;;6.90;4.53;;;;;;;25.44;65.23;97751.94;5037215;28;20197;-30
2023/08/22 08:55:19;;;;;;;5.00;4.50;;;;;;;25.48;65.18;97767.47;5025304;28;20210;-27
2023/08/22 08:57:46;;;;;;;4.40;4.00;;;;;;;25.47;65.26;97760.59;5031096;28;20256;-27
2023/08/22 09:00:16;;;;;;;5.10;4.70;;;;;;;25.48;64.90;97764.88;5016356;28;20686;-27
2023/08/22 09:02:44;;;;;;;4.27;3.97;;;;;;;25.48;64.94;97766.59;5034977;28;20210;-27
2023/08/22 09:05:11;;;;;;;4.53;4.13;;;;;;;25.48;64.76;97767.47;5030012;28;20288;-27
2023/08/22 09:07:38;;;;;;;4.63;4.27;;;;;;;25.47;64.74;97763.16;5038140;28;20741;-27
2023/08/22 09:10:07;;;;;;;4.07;3.73;;;;;;;25.48;64.73;97758.88;5037253;28;20615;-27
2023/08/22 09:12:35;;;;;;;5.10;4.40;;;;;;;25.49;64.84;97765.78;5022282;28;20309;-33
2023/08/22 09:15:02;;;;;;;4.30;3.90;;;;;;;25.48;64.61;97756.28;5039679;28;20213;-28
2023/08/22 09:17:29;;;;;;;4.50;4.10;;;;;;;25.48;64.91;97759.75;5041494;28;20214;-28
2023/08/22 09:19:56;;;;;;;4.63;4.23;;;;;;;25.48;64.87;97759.75;5037763;28;20202;-27
2023/08/22 09:22:28;;;;;;;4.73;4.10;;;;;;;25.49;64.38;97750.31;5040513;28;20201;-27
2023/08/22 09:24:55;;;;;;;4.20;3.80;;;;;;;25.51;64.43;97761.50;5044682;28;20197;-27
2023/08/22 09:27:24;;;;;;;4.00;3.70;;;;;;;25.50;64.58;97759.78;5039380;28;20256;-27
2023/08/22 09:29:51;;;;;;;4.33;3.90;;;;;;;25.50;64.44;97755.50;5023870;28;20208;-27
2023/08/22 09:32:19;;;;;;;4.33;3.90;;;;;;;25.49;64.39;97756.31;5024415;28;20202;-27
2023/08/22 09:34:53;;;;;;;4.50;4.10;;;;;;;25.45;64.20;97744.25;5044928;28;20644;-27
2023/08/22 09:37:32;;;;;;;4.10;3.77;;;;;;;25.50;64.68;97755.50;5040738;28;20819;-27
2023/08/22 09:40:00;;;;;;;4.23;3.83;;;;;;;25.50;64.73;97750.34;5038230;28;20197;-27
2023/08/22 09:42:29;;;;;;;3.90;3.60;;;;;;;25.50;64.57;97749.47;5034966;28;20201;-27
2023/08/22 09:44:56;;;;;;;3.70;3.37;;;;;;;25.50;64.70;97745.19;5041309;28;20626;-27
2023/08/22 09:47:32;;;;;;;4.47;4.07;;;;;;;25.50;64.35;97744.31;5034820;28;20705;-27
2023/08/22 09:50:00;;;;;;;4.00;3.70;;;;;;;25.50;64.73;97745.19;5024395;28;20197;-27
2023/08/22 09:52:27;;;;;;;3.97;3.67;;;;;;;25.51;64.66;97741.78;5047935;28;20220;-27
2023/08/22 09:54:53;;;;;;;3.73;3.43;;;;;;;25.50;64.27;97744.31;5045042;28;20209;-27
2023/08/22 09:57:21;;;;;;;4.07;3.70;;;;;;;25.48;64.16;97740.84;5011318;28;20290;-27
2023/08/22 09:59:47;;;;;;;4.27;3.87;;;;;;;25.50;64.29;97739.19;5009233;28;20735;-27
2023/08/22 10:02:14;;;;;;;4.20;3.80;;;;;;;25.49;64.62;97740.88;5037373;28;20259;-27
2023/08/22 10:04:41;;;;;;;4.10;3.80;;;;;;;25.47;64.62;97740.00;5039285;28;20810;-27
2023/08/22 10:07:08;;;;;;;3.73;3.43;;;;;;;25.48;64.25;97741.72;5033193;28;20230;-27
2023/08/22 10:09:35;;;;;;;4.07;3.67;;;;;;;25.47;64.37;97727.13;5013131;28;20197;-28
2023/08/22 10:12:02;;;;;;;3.90;3.60;;;;;;;25.49;64.33;97742.59;4994423;28;20201;-36
2023/08/22 10:14:31;;;;;;;4.00;3.70;;;;;;;25.48;64.61;97734.00;5006443;28;20230;-27
2023/08/22 10:16:57;;;;;;;4.20;3.80;;;;;;;25.49;64.40;97745.19;5016469;28;20241;-27
2023/08/22 10:19:25;;;;;;;4.00;3.70;;;;;;;25.49;64.22;97728.00;5030745;28;20201;-27
2023/08/22 10:21:53;;;;;;;3.70;3.40;;;;;;;25.49;64.37;97729.75;5017195;28;20202;-27
2023/08/22 10:24:32;;;;;;;4.13;3.73;;;;;;;25.34;64.33;97703.75;5021914;28;20194;-27
2023/08/22 10:27:03;;;;;;;3.63;3.33;;;;;;;25.48;64.21;97731.44;5042325;28;20225;-27
2023/08/22 10:29:41;;;;;;;3.83;3.33;;;;;;;25.49;64.68;97720.28;5044789;28;20193;-27
2023/08/22 10:32:08;;;;;;;4.30;3.83;;;;;;;25.48;63.91;97718.56;5000577;28;20205;-27
2023/08/22 10:34:34;;;;;;;4.67;3.93;;;;;;;25.47;63.71;97710.81;5041123;28;20204;-27
2023/08/22 10:37:01;;;;;;;4.03;3.67;;;;;;;25.49;64.00;97716.88;5041583;28;20316;-27
2023/08/22 10:39:47;;;;;;;4.40;4.00;;;;;;;25.47;63.97;97714.28;5021447;28;20465;-30
2023/08/22 10:42:20;;;;;;;4.07;3.70;;;;;;;25.49;64.51;97714.28;5013199;28;20202;-27
2023/08/22 10:44:50;;;;;;;4.80;3.60;;;;;;;25.50;64.46;97705.72;5018100;28;20206;-27
2023/08/22 10:47:21;;;;;;;3.97;3.67;;;;;;;25.50;64.54;97709.16;5012926;28;20536;-27
2023/08/22 10:49:48;;;;;;;4.10;3.80;;;;;;;25.50;64.47;97698.88;5014433;28;20217;-27
2023/08/22 10:52:36;;;;;;;4.63;4.23;;;;;;;25.51;64.18;97700.59;5013672;28;20203;-27
2023/08/22 10:55:03;;;;;;;5.37;4.17;;;;;;;25.51;64.29;97700.59;5021359;28;20200;-27
2023/08/22 10:57:31;;;;;;;4.10;3.80;;;;;;;25.48;64.32;97690.25;5010565;28;20214;-27
2023/08/22 11:00:12;;;;;;;4.07;3.77;;;;;;;25.50;63.94;97698.00;5016315;28;20285;-27
2023/08/22 11:02:40;;;;;;;4.03;3.73;;;;;;;25.39;64.23;97671.22;5013477;28;20213;-31
2023/08/22 11:05:11;;;;;;;4.67;4.27;;;;;;;25.48;64.16;97685.09;5021224;28;20197;-28
2023/08/22 11:23:08;;;;;;;4.57;3.60;;;;;;;25.67;58.85;97671.72;5007778;28;20233;-27
2023/08/22 11:25:36;;;;;;;4.77;4.10;;;;;;;25.72;57.40;97679.50;5029210;28;20205;-27
2023/08/22 11:28:03;;;;;;;3.80;3.50;;;;;;;25.75;56.30;97677.81;5026541;28;20230;-27
2023/08/22 11:30:30;;;;;;;4.73;3.60;;;;;;;25.63;55.26;97649.31;5016566;28;20748;-27
2023/08/22 11:32:56;;;;;;;3.87;3.47;;;;;;;25.87;54.05;97680.56;5019299;28;20560;-27
2023/08/22 11:35:23;;;;;;;4.27;3.83;;;;;;;25.93;53.17;97682.38;5037375;28;20205;-27
2023/08/22 11:37:49;;;;;;;3.63;3.33;;;;;;;25.96;52.95;97695.31;5026444;28;20308;-28
2023/08/22 11:40:16;;;;;;;3.93;3.57;;;;;;;25.96;51.46;97677.28;5013005;28;20641;-33
2023/08/22 11:42:46;;;;;;;3.63;3.30;;;;;;;26.02;51.88;97680.81;5029803;28;20275;-33
2023/08/22 11:45:14;;;;;;;4.55;3.80;;;;;;;26.08;51.41;97685.22;5011458;28;20201;-28
2023/08/22 11:47:45;;;;;;;3.73;3.37;;;;;;;26.11;50.92;97686.09;5030593;28;20221;-28
2023/08/22 11:50:25;;;;;;;3.65;3.35;;;;;;;26.15;49.91;97687.03;5027458;28;20207;-28
2023/08/22 11:52:53;;;;;;;3.65;3.35;;;;;;;26.16;49.07;97681.88;5029234;28;20202;-28